Time;durP1;ratioP1;P1;durP2;ratioP2;P2;SDS_P1;SDS_P2;PMS_P1;PMS_P2;Temp;Humidity;BMP_temperature;BMP_pressure;BME280_temperature;BME280_humidity;BME280_pressure;Samples;Min_cycle;Max_cycle;Signal;HPM_P1;HPM_P2
2023/06/16 00:01:06;;;;;;;6.35;2.97;;;22.70;40.40;;;;;;5027827;28;20040;-63
2023/06/16 00:03:35;;;;;;;6.93;3.30;;;22.60;40.60;;;;;;5031855;28;20026;-63
2023/06/16 00:06:14;;;;;;;7.88;3.10;;;22.60;40.60;;;;;;5031410;28;20021;-62
2023/06/16 00:08:42;;;;;;;5.90;3.03;;;22.60;40.70;;;;;;5025676;28;20137;-62
2023/06/16 00:11:08;;;;;;;8.32;3.30;;;22.50;40.80;;;;;;5026483;28;20017;-62
2023/06/16 00:13:34;;;;;;;6.38;2.80;;;22.50;40.90;;;;;;5029107;28;20388;-62
2023/06/16 00:16:00;;;;;;;6.22;3.10;;;22.50;41.00;;;;;;5026448;28;20394;-62
2023/06/16 00:18:27;;;;;;;7.03;3.03;;;22.40;41.10;;;;;;5031317;28;20088;-62
2023/06/16 00:20:54;;;;;;;6.07;2.90;;;22.40;41.20;;;;;;5021144;28;20478;-62
2023/06/16 00:23:23;;;;;;;8.10;3.63;;;22.30;41.20;;;;;;5022213;28;20156;-62
2023/06/16 00:25:49;;;;;;;7.13;3.00;;;22.30;41.30;;;;;;5032409;28;20450;-63
2023/06/16 00:28:15;;;;;;;6.55;2.88;;;22.30;41.50;;;;;;5025236;28;20026;-63
2023/06/16 00:30:41;;;;;;;6.68;3.45;;;22.20;41.60;;;;;;5029073;28;20036;-62
2023/06/16 00:33:07;;;;;;;7.75;3.40;;;22.20;41.70;;;;;;5030307;28;20021;-62
2023/06/16 00:35:33;;;;;;;6.40;3.40;;;22.10;42.30;;;;;;5033784;28;20348;-63
2023/06/16 00:37:58;;;;;;;6.55;3.00;;;22.10;41.60;;;;;;5029295;28;20026;-63
2023/06/16 00:40:24;;;;;;;7.75;3.30;;;22.10;41.70;;;;;;5029544;28;20052;-63
2023/06/16 00:42:50;;;;;;;6.03;3.03;;;22.10;41.60;;;;;;5032300;28;20099;-63
2023/06/16 00:45:16;;;;;;;5.93;3.00;;;22.10;41.60;;;;;;5027217;28;20499;-63
2023/06/16 00:47:42;;;;;;;6.63;3.33;;;22.10;41.60;;;;;;5024987;28;20017;-62
2023/06/16 00:50:09;;;;;;;6.28;3.08;;;22.10;41.60;;;;;;5032472;28;20037;-63
2023/06/16 00:52:37;;;;;;;6.55;3.05;;;22.10;41.60;;;;;;5034447;28;20088;-62
2023/06/16 00:55:08;;;;;;;7.72;3.22;;;22.10;41.50;;;;;;5025820;28;20442;-62
2023/06/16 00:57:34;;;;;;;5.93;3.25;;;22.10;41.40;;;;;;5030300;28;20034;-62
2023/06/16 01:00:00;;;;;;;6.82;3.22;;;22.10;41.50;;;;;;5016855;28;20034;-62
2023/06/16 01:02:26;;;;;;;9.52;3.50;;;22.10;41.40;;;;;;5025826;28;20423;-62
2023/06/16 01:04:54;;;;;;;8.30;3.40;;;22.10;41.40;;;;;;5025599;28;20415;-62
2023/06/16 01:07:28;;;;;;;7.50;3.15;;;22.10;41.40;;;;;;5034857;28;20030;-62
2023/06/16 01:10:04;;;;;;;7.53;3.45;;;22.10;41.40;;;;;;5027659;28;20052;-62
2023/06/16 01:12:42;;;;;;;7.80;3.55;;;22.00;41.40;;;;;;5036237;28;20026;-62
2023/06/16 01:15:13;;;;;;;6.50;3.20;;;22.00;41.50;;;;;;5027913;28;20045;-62
2023/06/16 01:17:43;;;;;;;6.35;3.42;;;22.00;41.50;;;;;;5035720;28;20441;-62
2023/06/16 01:20:15;;;;;;;7.00;3.30;;;21.90;41.50;;;;;;5032849;28;20022;-62
2023/06/16 01:22:53;;;;;;;6.00;2.90;;;22.00;41.60;;;;;;5009479;28;20444;-63
2023/06/16 01:25:22;;;;;;;6.97;3.42;;;21.90;41.50;;;;;;5029868;28;21312;-62
2023/06/16 01:27:51;;;;;;;7.57;3.28;;;21.90;41.60;;;;;;5031963;28;20021;-62
2023/06/16 01:30:22;;;;;;;6.18;3.40;;;21.90;41.60;;;;;;5023171;28;20137;-62
2023/06/16 01:32:52;;;;;;;5.65;2.70;;;21.90;41.60;;;;;;5031237;28;20028;-63
2023/06/16 01:35:22;;;;;;;7.88;3.28;;;21.90;41.80;;;;;;5015853;28;20365;-63
2023/06/16 01:37:50;;;;;;;5.45;3.13;;;21.90;41.80;;;;;;5025826;28;20026;-62
2023/06/16 01:40:18;;;;;;;8.05;3.17;;;21.80;41.90;;;;;;5030184;28;20021;-63
2023/06/16 01:42:46;;;;;;;7.88;3.50;;;21.90;42.20;;;;;;5023908;28;20025;-62
2023/06/16 01:45:14;;;;;;;7.15;3.63;;;21.80;42.10;;;;;;5032731;28;20056;-62
2023/06/16 01:47:41;;;;;;;8.52;3.38;;;21.80;42.10;;;;;;5041504;28;20037;-62
2023/06/16 01:50:08;;;;;;;6.32;3.17;;;21.80;42.30;;;;;;5021823;28;20033;-62
2023/06/16 01:52:33;;;;;;;6.65;3.58;;;21.70;42.40;;;;;;5031827;28;20404;-62
2023/06/16 01:54:59;;;;;;;7.57;2.97;;;21.70;42.90;;;;;;5026133;28;20025;-62
2023/06/16 01:57:27;;;;;;;6.78;3.08;;;21.60;42.90;;;;;;5031509;28;20036;-62
2023/06/16 02:00:14;;;;;;;6.00;3.15;;;21.60;43.20;;;;;;5013484;28;20044;-62
2023/06/16 02:02:50;;;;;;;8.68;3.88;;;21.60;43.40;;;;;;5020504;28;20116;-62
2023/06/16 02:05:21;;;;;;;6.25;3.20;;;21.50;43.50;;;;;;5023535;28;20105;-62
2023/06/16 02:07:48;;;;;;;;;;;21.40;43.60;;;;;;5031828;28;20167;-62
2023/06/16 02:10:14;;;;;;;6.30;3.38;;;21.40;43.60;;;;;;5024652;28;20334;-62
2023/06/16 02:12:40;;;;;;;6.10;3.30;;;21.30;43.70;;;;;;5020253;28;20459;-61
2023/06/16 02:15:07;;;;;;;7.03;3.00;;;21.30;43.80;;;;;;5031890;28;20336;-61
2023/06/16 02:17:33;;;;;;;6.28;3.33;;;21.30;43.90;;;;;;5020113;28;20136;-62
2023/06/16 02:19:58;;;;;;;8.45;3.92;;;21.30;43.90;;;;;;5029372;28;20495;-62
2023/06/16 02:22:24;;;;;;;6.40;3.22;;;21.30;43.90;;;;;;5026079;28;20037;-62
2023/06/16 02:24:50;;;;;;;7.07;3.38;;;21.30;43.80;;;;;;5033977;28;20091;-62
2023/06/16 02:27:18;;;;;;;8.45;3.80;;;21.30;43.80;;;;;;5034699;28;20026;-62
2023/06/16 02:29:44;;;;;;;7.07;3.30;;;21.30;43.80;;;;;;5031250;28;20023;-61
2023/06/16 02:32:10;;;;;;;7.93;4.15;;;21.20;43.90;;;;;;5012661;28;20021;-62
2023/06/16 02:34:38;;;;;;;7.05;3.20;;;21.20;44.00;;;;;;5032278;28;20026;-62
2023/06/16 02:37:04;;;;;;;6.60;3.20;;;21.20;44.00;;;;;;5034865;28;20445;-62
2023/06/16 02:39:30;;;;;;;9.45;3.95;;;21.20;44.10;;;;;;5022275;28;20022;-62
2023/06/16 02:41:56;;;;;;;7.40;3.55;;;21.20;44.30;;;;;;5027908;28;20035;-62
2023/06/16 02:44:22;;;;;;;8.48;4.10;;;21.10;44.30;;;;;;5029571;28;20503;-62
2023/06/16 02:46:47;;;;;;;7.80;3.10;;;21.10;44.30;;;;;;5031262;28;20029;-62
2023/06/16 02:49:16;;;;;;;6.90;3.80;;;21.10;44.50;;;;;;5029952;28;20024;-62
2023/06/16 02:51:42;;;;;;;6.13;3.58;;;21.10;44.50;;;;;;5013384;28;20112;-63
2023/06/16 02:54:09;;;;;;;7.32;3.63;;;21.10;44.60;;;;;;5030923;28;20129;-62
2023/06/16 02:56:35;;;;;;;11.30;4.10;;;21.10;44.70;;;;;;5025227;28;20522;-62
2023/06/16 02:59:01;;;;;;;6.38;3.55;;;21.10;44.80;;;;;;5034450;28;20053;-62
2023/06/16 03:01:29;;;;;;;10.70;3.70;;;21.00;44.90;;;;;;5018717;28;20115;-63
2023/06/16 03:04:25;;;;;;;6.80;3.63;;;21.00;45.00;;;;;;5022384;28;20029;-62
2023/06/16 03:07:05;;;;;;;7.88;3.53;;;20.90;45.00;;;;;;5029640;28;20029;-62
2023/06/16 03:09:35;;;;;;;9.35;4.10;;;21.00;45.00;;;;;;5035299;28;20024;-62
2023/06/16 03:12:04;;;;;;;6.45;3.40;;;20.90;45.00;;;;;;5030587;28;20120;-62
2023/06/16 03:14:33;;;;;;;7.60;3.78;;;20.90;45.10;;;;;;5026406;28;20028;-62
2023/06/16 03:17:10;;;;;;;7.88;3.47;;;20.90;45.10;;;;;;5028884;28;20424;-62
2023/06/16 03:19:36;;;;;;;6.03;3.22;;;20.90;45.20;;;;;;5030788;28;20021;-62
2023/06/16 03:22:03;;;;;;;6.43;3.50;;;20.90;45.20;;;;;;5027197;28;20145;-62
2023/06/16 03:24:38;;;;;;;7.05;3.30;;;20.90;45.30;;;;;;5029887;28;20018;-62
2023/06/16 03:27:05;;;;;;;6.45;3.47;;;20.90;45.30;;;;;;5028491;28;20044;-62
2023/06/16 03:29:50;;;;;;;7.30;3.80;;;20.90;45.30;;;;;;5031145;28;20025;-62
2023/06/16 03:32:16;;;;;;;7.18;3.20;;;20.90;45.50;;;;;;5025822;28;20468;-62
2023/06/16 03:34:44;;;;;;;7.55;3.55;;;20.80;45.60;;;;;;5037197;28;20018;-62
2023/06/16 03:37:10;;;;;;;9.65;4.07;;;20.90;45.80;;;;;;5023248;28;20363;-62
2023/06/16 03:39:38;;;;;;;6.30;3.20;;;20.80;45.90;;;;;;5021604;28;20351;-63
2023/06/16 03:42:05;;;;;;;8.32;3.75;;;20.80;46.10;;;;;;5002459;28;20022;-62
2023/06/16 03:44:30;;;;;;;7.53;3.92;;;20.80;46.30;;;;;;5024990;28;20017;-62
2023/06/16 03:46:56;;;;;;;7.75;3.58;;;20.80;46.40;;;;;;5019813;28;20041;-62
2023/06/16 03:49:22;;;;;;;7.53;3.55;;;20.70;46.60;;;;;;5021328;28;20018;-62
2023/06/16 03:51:49;;;;;;;8.43;3.58;;;20.70;46.80;;;;;;5023341;28;20048;-62
2023/06/16 03:54:17;;;;;;;7.72;3.72;;;20.70;46.90;;;;;;5023039;28;20021;-62
2023/06/16 03:56:43;;;;;;;6.28;3.20;;;20.60;47.00;;;;;;5017771;28;20022;-62
2023/06/16 03:59:09;;;;;;;8.13;3.78;;;20.60;47.10;;;;;;5019750;28;20030;-61
2023/06/16 04:01:38;;;;;;;6.97;3.58;;;20.60;47.30;;;;;;5022919;28;20037;-62
2023/06/16 04:04:06;;;;;;;8.38;3.80;;;20.60;47.40;;;;;;5022354;28;20056;-62
2023/06/16 04:06:34;;;;;;;7.20;3.83;;;20.50;47.50;;;;;;5014737;28;20030;-61
2023/06/16 04:09:03;;;;;;;8.10;3.60;;;20.50;47.60;;;;;;5025568;28;20025;-64
2023/06/16 04:11:31;;;;;;;6.65;3.40;;;20.50;47.90;;;;;;5028406;28;20112;-62
2023/06/16 04:13:57;;;;;;;8.93;3.88;;;20.50;48.00;;;;;;5007915;28;20044;-62
2023/06/16 04:16:23;;;;;;;6.63;3.28;;;20.50;48.20;;;;;;5026383;28;20184;-62
2023/06/16 04:18:50;;;;;;;6.82;3.58;;;20.40;48.30;;;;;;5014228;28;20201;-62
2023/06/16 04:21:17;;;;;;;8.10;3.47;;;20.40;48.40;;;;;;5031945;28;20033;-62
2023/06/16 04:23:43;;;;;;;7.65;3.55;;;20.50;48.60;;;;;;5026453;28;20463;-62
2023/06/16 04:26:10;;;;;;;6.85;3.38;;;20.40;48.60;;;;;;5024496;28;20068;-62
2023/06/16 04:28:42;;;;;;;7.50;3.45;;;20.40;48.60;;;;;;5035234;28;20013;-62
2023/06/16 04:31:09;;;;;;;7.55;3.58;;;20.40;48.70;;;;;;5030277;28;20029;-62
2023/06/16 04:33:36;;;;;;;8.98;3.67;;;20.40;48.80;;;;;;5033629;28;20112;-62
2023/06/16 04:36:03;;;;;;;7.15;3.50;;;20.50;48.90;;;;;;5030682;28;20177;-63
2023/06/16 04:38:30;;;;;;;6.63;3.45;;;20.40;49.00;;;;;;5025655;28;20026;-63
2023/06/16 04:40:56;;;;;;;7.70;3.70;;;20.40;49.10;;;;;;5025917;28;20029;-62
2023/06/16 04:43:22;;;;;;;7.45;3.97;;;20.40;49.20;;;;;;5025187;28;20033;-62
2023/06/16 04:45:48;;;;;;;7.40;3.90;;;20.40;49.30;;;;;;5025221;28;20025;-62
2023/06/16 04:48:14;;;;;;;6.80;3.40;;;20.40;49.40;;;;;;5022814;28;20052;-62
2023/06/16 04:50:39;;;;;;;7.25;3.75;;;20.40;49.30;;;;;;5026322;28;20113;-62
2023/06/16 04:53:05;;;;;;;8.07;3.92;;;20.40;49.20;;;;;;5010784;28;20458;-63
2023/06/16 04:55:31;;;;;;;7.40;3.80;;;20.50;48.90;;;;;;5030842;28;20018;-63
2023/06/16 04:57:57;;;;;;;8.38;4.20;;;20.50;48.90;;;;;;5031154;28;20030;-63
2023/06/16 05:00:23;;;;;;;8.45;3.53;;;20.50;48.90;;;;;;5026885;28;20017;-63
2023/06/16 05:02:48;;;;;;;11.35;3.95;;;20.60;49.60;;;;;;5035122;28;20017;-63
2023/06/16 05:05:14;;;;;;;7.78;4.20;;;20.60;49.00;;;;;;5031482;28;20075;-62
2023/06/16 05:07:40;;;;;;;8.30;3.97;;;20.60;49.10;;;;;;5035745;28;20351;-63
2023/06/16 05:10:07;;;;;;;8.00;3.85;;;20.60;49.00;;;;;;5035820;28;20100;-63
2023/06/16 05:12:33;;;;;;;7.18;3.65;;;20.60;49.10;;;;;;5035636;28;20017;-63
2023/06/16 05:14:59;;;;;;;7.90;3.75;;;20.60;49.00;;;;;;5025019;28;20341;-62
2023/06/16 05:17:26;;;;;;;7.18;3.78;;;20.70;49.10;;;;;;5033607;28;20021;-63
2023/06/16 05:19:52;;;;;;;7.93;3.88;;;20.70;49.10;;;;;;5033652;28;20030;-63
2023/06/16 05:22:23;;;;;;;8.15;4.18;;;20.70;49.10;;;;;;5028655;28;20029;-63
2023/06/16 05:24:53;;;;;;;7.80;4.35;;;20.70;49.10;;;;;;5043676;28;20366;-62
2023/06/16 05:27:22;;;;;;;8.40;4.13;;;20.80;49.20;;;;;;5028703;28;20052;-63
2023/06/16 05:29:53;;;;;;;8.57;3.90;;;20.70;49.20;;;;;;5019378;28;20336;-63
2023/06/16 05:32:21;;;;;;;8.48;4.10;;;20.70;49.20;;;;;;5028119;28;20239;-62
2023/06/16 05:34:49;;;;;;;8.13;4.28;;;20.80;49.20;;;;;;5030519;28;20028;-62
2023/06/16 05:37:15;;;;;;;8.02;3.92;;;20.70;49.10;;;;;;5026307;28;20022;-62
2023/06/16 05:39:43;;;;;;;7.40;4.20;;;20.70;49.10;;;;;;5028616;28;20123;-62
2023/06/16 05:42:10;;;;;;;8.30;4.40;;;20.80;49.30;;;;;;5029162;28;20503;-62
2023/06/16 05:44:36;;;;;;;7.90;3.95;;;21.00;49.50;;;;;;5020494;28;20095;-62
2023/06/16 05:47:03;;;;;;;11.18;4.50;;;21.10;49.40;;;;;;5025605;28;20122;-63
2023/06/16 05:49:29;;;;;;;7.72;4.00;;;21.30;49.30;;;;;;5020765;28;20014;-62
2023/06/16 05:51:57;;;;;;;11.63;3.90;;;21.40;49.10;;;;;;5027683;28;21373;-62
2023/06/16 05:54:23;;;;;;;7.95;3.45;;;21.50;48.90;;;;;;5025924;28;20029;-62
2023/06/16 05:56:49;;;;;;;9.82;4.55;;;21.70;48.70;;;;;;5028560;28;20388;-62
2023/06/16 05:59:14;;;;;;;7.90;3.95;;;21.80;48.60;;;;;;5028288;28;20050;-62
2023/06/16 06:01:40;;;;;;;9.55;4.28;;;21.80;48.50;;;;;;5027141;28;20039;-62
2023/06/16 06:04:10;;;;;;;6.40;3.63;;;21.90;48.50;;;;;;5026555;28;20096;-62
2023/06/16 06:06:38;;;;;;;8.40;4.20;;;22.00;48.60;;;;;;5041935;28;20088;-62
2023/06/16 06:09:04;;;;;;;7.47;4.10;;;22.00;48.50;;;;;;5025406;28;20371;-62
2023/06/16 06:11:30;;;;;;;6.88;3.50;;;22.10;48.30;;;;;;5026317;28;20110;-62
2023/06/16 06:13:56;;;;;;;7.10;3.90;;;22.20;48.20;;;;;;5040620;28;20112;-62
2023/06/16 06:16:23;;;;;;;8.10;3.80;;;22.40;48.10;;;;;;5028982;28;20505;-62
2023/06/16 06:18:50;;;;;;;6.82;3.53;;;22.50;47.80;;;;;;5022865;28;20358;-63
2023/06/16 06:21:16;;;;;;;8.20;3.70;;;22.60;47.30;;;;;;5008092;28;20025;-63
2023/06/16 06:23:42;;;;;;;7.25;3.50;;;22.80;46.90;;;;;;5026694;28;20401;-61
2023/06/16 06:26:08;;;;;;;8.18;3.80;;;22.90;46.70;;;;;;5037761;28;20060;-61
2023/06/16 06:28:34;;;;;;;7.68;3.13;;;23.00;46.20;;;;;;5049916;28;20029;-62
2023/06/16 06:31:00;;;;;;;10.35;4.30;;;23.20;45.80;;;;;;5053822;28;20025;-62
2023/06/16 06:33:27;;;;;;;6.40;3.47;;;23.30;45.50;;;;;;5053865;28;20138;-61
2023/06/16 06:35:53;;;;;;;11.32;3.75;;;23.30;45.40;;;;;;5030397;28;20396;-62
2023/06/16 06:38:19;;;;;;;7.00;3.50;;;23.40;45.40;;;;;;5034140;28;20030;-62
2023/06/16 06:40:47;;;;;;;6.00;3.13;;;23.40;45.10;;;;;;5033639;28;20044;-61
2023/06/16 06:43:13;;;;;;;6.68;3.83;;;23.60;44.50;;;;;;5034076;28;20025;-62
2023/06/16 06:45:45;;;;;;;7.57;4.03;;;23.80;43.90;;;;;;5010038;28;20033;-62
2023/06/16 06:48:11;;;;;;;8.13;3.33;;;24.00;43.40;;;;;;5033837;28;20087;-62
2023/06/16 06:50:38;;;;;;;7.22;3.63;;;24.20;43.20;;;;;;5033531;28;20032;-61
2023/06/16 06:53:04;;;;;;;8.00;3.88;;;24.40;43.00;;;;;;5033756;28;20021;-61
2023/06/16 06:55:30;;;;;;;6.18;3.22;;;24.60;42.60;;;;;;5034433;28;20167;-62
2023/06/16 06:57:56;;;;;;;10.75;3.35;;;24.80;42.10;;;;;;5012296;28;20021;-61
2023/06/16 07:00:21;;;;;;;7.10;3.25;;;24.90;41.90;;;;;;5034742;28;20358;-61
2023/06/16 07:02:47;;;;;;;7.47;3.30;;;25.00;41.90;;;;;;5034444;28;20159;-62
2023/06/16 07:05:13;;;;;;;6.18;2.97;;;25.20;41.70;;;;;;5032719;28;20025;-62
2023/06/16 07:07:39;;;;;;;6.15;3.38;;;25.40;41.50;;;;;;5016913;28;20364;-62
2023/06/16 07:10:05;;;;;;;8.00;3.25;;;25.50;41.00;;;;;;5034164;28;20366;-62
2023/06/16 07:12:31;;;;;;;7.13;2.97;;;25.70;41.00;;;;;;5026155;28;20021;-62
2023/06/16 07:14:57;;;;;;;5.75;2.75;;;25.80;40.70;;;;;;5033502;28;20423;-63
2023/06/16 07:17:23;;;;;;;7.20;3.13;;;26.00;40.60;;;;;;5034652;28;20057;-62
2023/06/16 07:19:48;;;;;;;6.50;3.10;;;26.00;40.20;;;;;;5034093;28;20108;-62
2023/06/16 07:22:14;;;;;;;5.95;3.03;;;26.00;40.00;;;;;;5033026;28;20056;-63
2023/06/16 07:24:40;;;;;;;5.65;3.03;;;26.10;39.70;;;;;;5039746;28;20027;-62
2023/06/16 07:27:06;;;;;;;6.13;3.53;;;26.10;39.70;;;;;;5054120;28;20362;-62
2023/06/16 07:29:32;;;;;;;5.82;3.17;;;26.20;39.40;;;;;;5053891;28;20033;-62
2023/06/16 07:31:58;;;;;;;7.07;3.30;;;26.10;38.70;;;;;;5054267;28;20509;-63
2023/06/16 07:34:24;;;;;;;9.40;3.38;;;26.00;38.50;;;;;;5041958;28;20070;-63
2023/06/16 07:36:50;;;;;;;5.90;2.97;;;26.00;38.50;;;;;;5036403;28;20032;-62
2023/06/16 07:39:17;;;;;;;7.05;3.10;;;26.00;38.80;;;;;;5044988;28;20276;-63
2023/06/16 07:41:43;;;;;;;7.43;3.22;;;26.10;38.70;;;;;;5052257;28;20324;-63
2023/06/16 07:44:08;;;;;;;6.85;3.35;;;26.40;38.70;;;;;;5034255;28;20041;-62
2023/06/16 07:46:34;;;;;;;6.78;3.53;;;26.50;38.70;;;;;;5044192;28;20043;-63
2023/06/16 07:49:00;;;;;;;9.88;3.33;;;26.70;38.50;;;;;;5043042;28;20026;-62
2023/06/16 07:51:26;;;;;;;5.60;3.05;;;26.90;38.10;;;;;;5053689;28;20025;-63
2023/06/16 07:53:52;;;;;;;7.47;3.60;;;27.00;37.70;;;;;;5042497;28;20033;-62
2023/06/16 07:56:18;;;;;;;5.72;2.80;;;27.20;37.60;;;;;;5046613;28;20036;-62
2023/06/16 07:58:45;;;;;;;6.00;3.10;;;27.30;37.60;;;;;;5028442;28;20041;-62
2023/06/16 08:01:11;;;;;;;6.88;3.85;;;27.40;37.50;;;;;;5052045;28;20024;-62
2023/06/16 08:03:36;;;;;;;10.32;3.67;;;27.60;37.20;;;;;;5053739;28;20449;-62
2023/06/16 08:06:04;;;;;;;6.47;3.40;;;27.80;36.80;;;;;;5052544;28;20033;-63
2023/06/16 08:08:32;;;;;;;6.15;2.78;;;27.90;36.20;;;;;;5049031;28;20434;-62
2023/06/16 08:10:59;;;;;;;5.68;3.08;;;28.00;35.90;;;;;;5033740;28;20061;-63
2023/06/16 08:13:25;;;;;;;6.00;3.00;;;28.00;35.30;;;;;;5053716;28;20032;-63
2023/06/16 08:15:51;;;;;;;5.88;2.80;;;28.10;35.00;;;;;;5052328;28;20424;-63
2023/06/16 08:18:18;;;;;;;6.00;3.13;;;28.10;34.80;;;;;;5052427;28;20033;-62
2023/06/16 08:20:47;;;;;;;7.50;3.08;;;28.30;34.70;;;;;;5031946;28;20376;-63
2023/06/16 08:23:13;;;;;;;7.53;3.05;;;28.30;34.50;;;;;;5035623;28;20091;-63
2023/06/16 08:25:39;;;;;;;5.80;2.80;;;28.40;34.40;;;;;;5039333;28;20028;-63
2023/06/16 08:28:07;;;;;;;6.45;2.80;;;28.50;34.20;;;;;;5041662;28;20025;-62
2023/06/16 08:30:34;;;;;;;6.00;2.80;;;28.50;34.00;;;;;;5037455;28;20049;-63
2023/06/16 08:33:00;;;;;;;9.07;3.50;;;28.60;33.70;;;;;;5044090;28;20101;-63
2023/06/16 08:35:26;;;;;;;7.68;3.00;;;28.60;33.30;;;;;;5053337;28;20036;-63
2023/06/16 08:37:52;;;;;;;5.68;2.80;;;28.70;33.30;;;;;;5053778;28;20071;-63
2023/06/16 08:40:18;;;;;;;6.07;2.80;;;28.80;33.10;;;;;;5045362;28;20442;-63
2023/06/16 08:42:46;;;;;;;6.97;2.80;;;29.00;33.00;;;;;;5039789;28;20472;-63
2023/06/16 08:45:13;;;;;;;7.28;2.90;;;29.10;32.80;;;;;;5053583;28;20425;-63
2023/06/16 08:47:39;;;;;;;6.00;2.63;;;29.20;32.80;;;;;;5052005;28;20029;-63
2023/06/16 08:50:09;;;;;;;5.22;2.85;;;29.30;32.50;;;;;;5046913;28;20362;-63
2023/06/16 08:52:39;;;;;;;6.85;3.30;;;29.40;32.10;;;;;;5036007;28;20420;-63
2023/06/16 08:55:09;;;;;;;5.93;2.90;;;29.40;32.00;;;;;;5056217;28;20039;-63
2023/06/16 08:57:44;;;;;;;5.55;2.63;;;29.50;31.90;;;;;;5057089;28;20334;-62
2023/06/16 09:00:10;;;;;;;6.32;2.90;;;29.60;31.90;;;;;;5054944;28;20087;-63
2023/06/16 09:02:36;;;;;;;6.45;3.10;;;29.60;31.60;;;;;;5039977;28;20087;-63
2023/06/16 09:05:04;;;;;;;5.47;2.70;;;29.60;31.50;;;;;;5055989;28;20021;-63
2023/06/16 09:07:30;;;;;;;6.28;3.40;;;29.60;31.40;;;;;;5056481;28;20450;-63
2023/06/16 09:09:56;;;;;;;6.05;2.78;;;29.60;31.00;;;;;;5056759;28;20090;-63
2023/06/16 09:12:22;;;;;;;6.22;2.70;;;29.60;30.90;;;;;;5041902;28;20033;-62
2023/06/16 09:14:50;;;;;;;5.20;2.72;;;29.70;31.10;;;;;;5040639;28;20094;-63
2023/06/16 09:17:24;;;;;;;6.28;2.83;;;29.90;31.30;;;;;;5057000;28;20025;-63
2023/06/16 09:19:52;;;;;;;5.57;2.72;;;30.00;31.40;;;;;;5056863;28;20048;-63
2023/06/16 09:22:23;;;;;;;6.00;3.10;;;30.20;32.20;;;;;;5050206;28;20490;-63
2023/06/16 09:24:55;;;;;;;5.55;2.78;;;30.30;31.10;;;;;;5029796;28;20025;-63
2023/06/16 09:27:23;;;;;;;6.55;2.90;;;30.50;30.70;;;;;;5040605;28;20508;-63
2023/06/16 09:29:58;;;;;;;6.13;2.67;;;30.40;30.70;;;;;;5055573;28;20033;-63
2023/06/16 09:32:24;;;;;;;6.43;2.80;;;30.50;30.20;;;;;;5056488;28;20033;-63
2023/06/16 09:34:50;;;;;;;6.00;3.00;;;30.50;30.20;;;;;;5045434;28;20021;-63
2023/06/16 09:37:19;;;;;;;6.03;2.83;;;30.60;30.00;;;;;;5053931;28;20033;-63
2023/06/16 09:39:46;;;;;;;5.30;3.00;;;30.60;29.80;;;;;;5056285;28;20538;-63
2023/06/16 09:42:12;;;;;;;5.57;2.85;;;30.70;29.80;;;;;;5056072;28;20033;-63
2023/06/16 09:44:40;;;;;;;6.32;3.10;;;30.70;29.60;;;;;;5045852;28;20022;-63
2023/06/16 09:47:11;;;;;;;5.97;2.80;;;30.80;29.70;;;;;;5046908;28;20123;-63
2023/06/16 09:49:37;;;;;;;5.53;2.65;;;30.80;29.50;;;;;;5056417;28;20037;-63
2023/06/16 09:52:03;;;;;;;6.57;3.10;;;30.90;29.50;;;;;;5055702;28;20032;-62
2023/06/16 09:54:29;;;;;;;6.22;3.03;;;31.00;29.70;;;;;;5053395;28;20055;-63
2023/06/16 09:56:56;;;;;;;5.82;3.03;;;31.10;29.80;;;;;;5034842;28;20112;-63
2023/06/16 09:59:23;;;;;;;5.85;3.25;;;31.20;29.80;;;;;;5053497;28;20077;-63
2023/06/16 10:01:52;;;;;;;5.40;2.95;;;31.30;29.70;;;;;;5056037;28;20082;-63
2023/06/16 10:04:19;;;;;;;5.78;2.90;;;31.30;29.70;;;;;;5055208;28;20040;-63
2023/06/16 10:07:02;;;;;;;6.20;2.70;;;31.30;29.80;;;;;;5046771;28;20084;-63
2023/06/16 10:09:38;;;;;;;7.65;2.83;;;31.40;29.90;;;;;;5052091;28;20063;-63
2023/06/16 10:12:04;;;;;;;5.95;2.90;;;31.50;29.90;;;;;;5055802;28;20029;-63
2023/06/16 10:14:33;;;;;;;7.38;3.17;;;31.60;29.90;;;;;;5055122;28;20024;-64
2023/06/16 10:17:00;;;;;;;5.65;2.90;;;31.70;29.60;;;;;;5044386;28;20439;-63
2023/06/16 10:19:30;;;;;;;6.57;3.10;;;31.70;29.50;;;;;;5047721;28;20064;-63
2023/06/16 10:21:56;;;;;;;5.35;3.05;;;31.80;29.30;;;;;;5052127;28;20030;-63
2023/06/16 10:24:23;;;;;;;7.45;3.15;;;31.80;29.40;;;;;;5045043;28;20059;-62
2023/06/16 10:26:50;;;;;;;5.95;3.03;;;31.80;29.50;;;;;;5055040;28;20086;-63
2023/06/16 10:29:20;;;;;;;6.00;2.97;;;31.90;29.60;;;;;;5052654;28;20032;-63
2023/06/16 10:31:51;;;;;;;6.38;3.08;;;31.90;29.60;;;;;;5030124;28;20026;-63
2023/06/16 10:34:22;;;;;;;5.40;2.80;;;32.00;29.60;;;;;;5055340;28;20048;-63
2023/06/16 10:36:48;;;;;;;;;;;32.00;29.30;;;;;;5056085;28;20096;-63
2023/06/16 10:39:16;;;;;;;6.10;2.70;;;32.10;29.50;;;;;;5055372;28;19909;-63
2023/06/16 10:41:51;;;;;;;5.32;2.83;;;32.10;29.50;;;;;;5035765;28;20116;-63
2023/06/16 10:44:30;;;;;;;5.85;2.88;;;32.10;29.40;;;;;;5054798;28;20061;-63
2023/06/16 10:47:16;;;;;;;6.07;3.10;;;32.10;29.50;;;;;;5055557;28;20422;-63
2023/06/16 10:49:57;;;;;;;5.93;2.85;;;32.10;29.10;;;;;;5051458;28;20089;-63
2023/06/16 10:52:29;;;;;;;7.18;2.60;;;32.20;28.90;;;;;;5034963;28;20040;-63
2023/06/16 10:54:55;;;;;;;7.10;3.10;;;32.20;29.10;;;;;;5036803;28;20022;-62
2023/06/16 10:57:25;;;;;;;6.60;3.50;;;32.30;28.80;;;;;;5031587;28;20068;-64
2023/06/16 10:59:56;;;;;;;6.07;2.90;;;32.30;28.80;;;;;;5026037;28;20038;-63
2023/06/16 11:02:27;;;;;;;5.30;2.88;;;32.30;28.80;;;;;;5031773;28;20044;-63
2023/06/16 11:05:12;;;;;;;6.05;3.00;;;32.30;28.80;;;;;;5027515;28;20363;-63
2023/06/16 11:07:40;;;;;;;6.22;3.25;;;32.30;28.90;;;;;;5028751;28;20080;-64
2023/06/16 11:10:16;;;;;;;6.00;3.00;;;32.30;28.80;;;;;;5029660;28;20033;-64
2023/06/16 11:12:42;;;;;;;5.78;3.15;;;32.40;28.70;;;;;;5029703;28;20042;-65
2023/06/16 11:15:09;;;;;;;7.88;3.45;;;32.30;28.80;;;;;;5020479;28;20421;-64
2023/06/16 11:17:35;;;;;;;6.65;3.25;;;32.00;28.90;;;;;;5026221;28;20022;-64
2023/06/16 11:20:03;;;;;;;7.63;3.47;;;31.80;29.20;;;;;;5028445;28;20037;-63
2023/06/16 11:22:30;;;;;;;5.35;3.00;;;31.80;29.40;;;;;;5021130;28;20029;-64
2023/06/16 11:24:56;;;;;;;7.53;2.92;;;31.80;29.40;;;;;;5017140;28;20033;-64
2023/06/16 11:27:23;;;;;;;5.82;3.03;;;31.90;29.60;;;;;;5028427;28;20176;-65
2023/06/16 11:29:53;;;;;;;6.63;3.42;;;31.80;29.90;;;;;;5028302;28;20061;-64
2023/06/16 11:32:32;;;;;;;6.07;2.92;;;31.90;29.80;;;;;;5023087;28;20436;-64
2023/06/16 11:34:59;;;;;;;7.90;3.15;;;31.80;29.70;;;;;;5029004;28;20379;-64
2023/06/16 11:37:47;;;;;;;5.82;3.05;;;31.40;29.80;;;;;;5027274;28;20025;-64
2023/06/16 11:40:18;;;;;;;7.93;3.17;;;31.00;29.90;;;;;;5027641;28;20044;-64
2023/06/16 11:42:51;;;;;;;8.15;3.30;;;30.60;30.20;;;;;;5024690;28;20057;-64
2023/06/16 11:45:16;;;;;;;7.47;3.17;;;30.40;30.70;;;;;;5028159;28;20026;-64
2023/06/16 11:47:42;;;;;;;7.22;3.50;;;30.20;30.60;;;;;;5025284;28;20049;-63
2023/06/16 11:50:10;;;;;;;6.55;3.10;;;30.00;30.70;;;;;;5037887;28;20017;-63
2023/06/16 11:52:36;;;;;;;7.68;3.53;;;29.80;30.70;;;;;;5026062;28;20033;-63
2023/06/16 11:55:02;;;;;;;5.97;3.40;;;29.70;30.80;;;;;;5028441;28;20310;-63
2023/06/16 11:57:28;;;;;;;6.88;3.60;;;29.60;30.90;;;;;;5025070;28;20350;-63
2023/06/16 11:59:55;;;;;;;6.80;3.10;;;29.50;31.20;;;;;;5032136;28;20052;-63
2023/06/16 12:02:21;;;;;;;6.13;3.08;;;29.40;31.30;;;;;;5029697;28;20087;-63
2023/06/16 12:04:47;;;;;;;7.00;3.33;;;29.40;31.30;;;;;;5026918;28;20354;-64
2023/06/16 12:07:14;;;;;;;7.93;3.60;;;29.30;31.50;;;;;;5029142;28;20022;-64
2023/06/16 12:09:40;;;;;;;7.05;3.13;;;29.20;31.50;;;;;;5019233;28;20365;-63
2023/06/16 12:12:07;;;;;;;7.57;3.40;;;29.10;31.50;;;;;;5030159;28;20028;-63
2023/06/16 12:14:36;;;;;;;7.43;3.42;;;29.10;31.50;;;;;;5027965;28;20091;-64
2023/06/16 12:17:04;;;;;;;7.07;3.72;;;29.20;31.70;;;;;;5024597;28;20112;-63
2023/06/16 12:19:30;;;;;;;6.72;3.35;;;29.40;31.50;;;;;;5030273;28;20064;-63
2023/06/16 12:22:00;;;;;;;7.55;3.60;;;29.60;31.30;;;;;;5029046;28;20403;-63
2023/06/16 12:24:27;;;;;;;6.38;3.10;;;29.80;31.20;;;;;;5022016;28;20347;-64
2023/06/16 12:26:53;;;;;;;6.20;3.50;;;29.80;31.00;;;;;;5027856;28;20113;-65
2023/06/16 12:29:20;;;;;;;6.38;3.83;;;29.80;31.10;;;;;;5030718;28;20025;-65
2023/06/16 12:32:05;;;;;;;7.25;3.28;;;29.70;31.00;;;;;;5034920;28;20033;-66
2023/06/16 12:34:33;;;;;;;7.93;3.10;;;29.60;31.00;;;;;;5026312;28;20045;-65
2023/06/16 12:37:06;;;;;;;6.50;3.40;;;29.50;31.00;;;;;;5031451;28;20123;-63
2023/06/16 12:39:33;;;;;;;7.07;3.50;;;29.30;31.20;;;;;;5036486;28;20033;-63
2023/06/16 12:42:00;;;;;;;6.20;3.20;;;29.20;31.50;;;;;;5035565;28;20131;-63
2023/06/16 12:44:46;;;;;;;6.63;3.42;;;29.10;31.60;;;;;;5031876;28;20029;-64
2023/06/16 12:47:14;;;;;;;5.97;3.10;;;29.00;31.70;;;;;;5033971;28;20052;-64
2023/06/16 12:49:40;;;;;;;6.30;3.22;;;29.00;31.70;;;;;;5034357;28;20362;-65
2023/06/16 12:52:07;;;;;;;6.50;3.03;;;29.10;31.90;;;;;;5036667;28;20032;-66